createdAt,value
2019-03-10T00:00:29.252Z,-4.18
2019-03-10T00:02:58.619Z,-4.15
2019-03-10T00:05:28.025Z,-4.12
2019-03-10T00:07:57.394Z,-4.08
2019-03-10T00:10:26.799Z,-4.10
2019-03-10T00:12:56.538Z,-4.09
2019-03-10T00:15:25.936Z,-4.11
2019-03-10T00:17:55.315Z,-4.12
2019-03-10T00:20:24.693Z,-4.12
2019-03-10T00:22:54.130Z,-4.15
2019-03-10T00:25:23.616Z,-4.13
2019-03-10T00:27:53.094Z,-4.12
2019-03-10T00:30:22.852Z,-4.18
2019-03-10T00:32:52.589Z,-4.19
2019-03-10T00:35:21.914Z,-4.18
2019-03-10T00:37:51.344Z,-4.20
2019-03-10T00:41:05.056Z,-4.22
2019-03-10T00:44:14.046Z,-4.22
2019-03-10T00:47:15.139Z,-4.22
2019-03-10T00:50:04.683Z,-4.23
2019-03-10T00:52:41.500Z,-4.24
2019-03-10T00:55:10.854Z,-4.22
2019-03-10T00:57:40.258Z,-4.25
2019-03-10T01:00:18.083Z,-4.26
2019-03-10T01:02:47.431Z,-4.26
2019-03-10T01:05:16.794Z,-4.21
2019-03-10T01:07:46.235Z,-4.23
2019-03-10T01:10:15.762Z,-4.25
2019-03-10T01:12:45.638Z,-4.26
2019-03-10T01:15:15.402Z,-4.18
2019-03-10T01:17:46.533Z,-4.18
2019-03-10T01:20:17.121Z,-4.18
2019-03-10T01:22:46.466Z,-4.19
2019-03-10T01:25:16.037Z,-4.21
2019-03-10T01:27:45.506Z,-4.21
2019-03-10T01:30:17.135Z,-4.26
2019-03-10T01:33:14.706Z,-4.26
2019-03-10T01:35:44.286Z,-4.29
2019-03-10T01:38:14.080Z,-4.31
2019-03-10T01:40:43.492Z,-4.29
2019-03-10T01:43:12.873Z,-4.27
2019-03-10T01:45:42.702Z,-4.27
2019-03-10T01:48:12.207Z,-4.30
2019-03-10T01:50:41.576Z,-4.24
2019-03-10T01:53:10.949Z,-4.27
2019-03-10T01:55:40.385Z,-4.26
2019-03-10T01:58:10.094Z,-4.24
2019-03-10T02:00:39.505Z,-4.26
2019-03-10T02:03:08.882Z,-4.22
2019-03-10T02:05:38.303Z,-4.26
2019-03-10T02:08:07.650Z,-4.25
2019-03-10T02:10:36.999Z,-4.22
2019-03-10T02:13:06.393Z,-4.23
2019-03-10T02:15:35.769Z,-4.26
2019-03-10T02:18:05.397Z,-4.26
2019-03-10T02:20:34.712Z,-4.24
2019-03-10T02:23:04.077Z,-4.23
2019-03-10T02:25:33.528Z,-4.22
2019-03-10T02:28:03.277Z,-4.26
2019-03-10T02:30:32.723Z,-4.31
2019-03-10T02:33:02.111Z,-4.32
2019-03-10T02:35:31.470Z,-4.32
2019-03-10T02:38:00.835Z,-4.31
2019-03-10T02:40:30.703Z,-4.35
2019-03-10T02:43:00.082Z,-4.39
2019-03-10T02:45:30.230Z,-4.41
2019-03-10T02:47:59.701Z,-4.45
2019-03-10T02:50:29.063Z,-4.46
2019-03-10T02:52:58.537Z,-4.46
2019-03-10T02:55:27.962Z,-4.45
2019-03-10T02:57:57.327Z,-4.49
2019-03-10T03:00:26.799Z,-4.46
2019-03-10T03:02:56.204Z,-4.52
2019-03-10T03:05:25.709Z,-4.56
2019-03-10T03:07:55.099Z,-4.61
2019-03-10T03:10:24.468Z,-4.67
2019-03-10T03:12:53.854Z,-4.73
2019-03-10T03:15:23.218Z,-4.78
2019-03-10T03:17:52.630Z,-4.84
2019-03-10T03:20:22.104Z,-4.81
2019-03-10T03:22:51.530Z,-4.83
2019-03-10T03:25:20.851Z,-4.89
2019-03-10T03:27:50.349Z,-4.88
2019-03-10T03:30:19.893Z,-4.94
2019-03-10T03:32:49.273Z,-4.94
2019-03-10T03:35:42.805Z,-4.91
2019-03-10T03:38:12.240Z,-4.89
2019-03-10T03:40:43.595Z,-4.94
2019-03-10T03:43:12.939Z,-4.93
2019-03-10T03:45:42.350Z,-4.92
2019-03-10T03:48:11.714Z,-4.92
2019-03-10T03:50:41.162Z,-4.97
2019-03-10T03:53:10.699Z,-4.93
2019-03-10T03:55:40.090Z,-4.96
2019-03-10T03:58:09.475Z,-4.98
2019-03-10T04:00:38.894Z,-5.00
2019-03-10T04:03:08.340Z,-5.05
2019-03-10T04:05:37.752Z,-5.10
2019-03-10T04:08:07.183Z,-5.08
2019-03-10T04:10:36.635Z,-5.06
2019-03-10T04:13:06.072Z,-5.04
2019-03-10T04:15:35.464Z,-5.04
2019-03-10T04:18:04.970Z,-5.08
2019-03-10T04:20:34.308Z,-5.12
2019-03-10T04:23:03.770Z,-5.15
2019-03-10T04:25:33.120Z,-5.17
2019-03-10T04:28:02.544Z,-5.19
2019-03-10T04:30:31.898Z,-5.18
2019-03-10T04:33:01.297Z,-5.22
2019-03-10T04:35:30.656Z,-5.26
2019-03-10T04:38:00.023Z,-5.26
2019-03-10T04:40:29.457Z,-5.28
2019-03-10T04:42:58.954Z,-5.31
2019-03-10T04:45:28.338Z,-5.32
2019-03-10T04:47:57.749Z,-5.32
2019-03-10T04:50:27.155Z,-5.30
2019-03-10T04:52:56.495Z,-5.33
2019-03-10T04:55:39.674Z,-5.33
2019-03-10T04:58:11.393Z,-5.37
2019-03-10T05:00:41.984Z,-5.35
2019-03-10T05:03:11.488Z,-5.32
2019-03-10T05:05:40.844Z,-5.39
2019-03-10T05:08:10.352Z,-5.41
2019-03-10T05:10:39.770Z,-5.43
2019-03-10T05:13:09.242Z,-5.44
2019-03-10T05:15:38.667Z,-5.43
2019-03-10T05:18:08.099Z,-5.48
2019-03-10T05:20:37.465Z,-5.48
2019-03-10T05:23:27.716Z,-5.43
2019-03-10T05:25:59.720Z,-5.42
2019-03-10T05:28:29.763Z,-5.42
2019-03-10T05:30:59.162Z,-5.43
2019-03-10T05:33:28.509Z,-5.45
2019-03-10T05:35:57.839Z,-5.42
2019-03-10T05:38:27.228Z,-5.42
2019-03-10T05:40:56.645Z,-5.40
2019-03-10T05:43:26.134Z,-5.41
2019-03-10T05:45:55.662Z,-5.40
2019-03-10T05:48:25.061Z,-5.38
2019-03-10T05:50:54.458Z,-5.35
2019-03-10T05:53:23.876Z,-5.33
2019-03-10T05:55:53.229Z,-5.32
2019-03-10T05:58:22.617Z,-5.29
2019-03-10T06:00:52.274Z,-5.29
2019-03-10T06:03:21.654Z,-5.26
2019-03-10T06:05:51.482Z,-5.23
2019-03-10T06:08:21.382Z,-5.14
2019-03-10T06:10:50.908Z,-5.13
2019-03-10T06:13:20.310Z,-5.15
2019-03-10T06:15:49.776Z,-5.17
2019-03-10T06:18:19.224Z,-5.14
2019-03-10T06:20:48.624Z,-5.06
2019-03-10T06:23:18.044Z,-5.11
2019-03-10T06:25:47.442Z,-5.17
2019-03-10T06:28:17.754Z,-5.21
2019-03-10T06:30:47.112Z,-5.17
2019-03-10T06:33:16.503Z,-5.11
2019-03-10T06:35:45.991Z,-5.01
2019-03-10T06:38:15.424Z,-5.01
2019-03-10T06:40:44.811Z,-5.06
2019-03-10T06:43:14.213Z,-5.06
2019-03-10T06:45:43.851Z,-5.09
2019-03-10T06:48:13.265Z,-5.10
2019-03-10T06:50:42.654Z,-5.00
2019-03-10T06:53:12.026Z,-4.95
2019-03-10T06:55:41.356Z,-5.07
2019-03-10T06:58:10.967Z,-5.11
2019-03-10T07:00:40.520Z,-5.08
2019-03-10T07:03:09.870Z,-4.96
2019-03-10T07:05:39.305Z,-4.81
2019-03-10T07:08:08.700Z,-4.76
2019-03-10T07:10:38.071Z,-4.61
2019-03-10T07:13:07.784Z,-4.57
2019-03-10T07:15:37.109Z,-4.53
2019-03-10T07:18:06.575Z,-4.38
2019-03-10T07:20:35.961Z,-4.41
2019-03-10T07:23:07.336Z,-4.36
2019-03-10T07:25:36.785Z,-4.33
2019-03-10T07:28:28.066Z,-4.10
2019-03-10T07:31:11.319Z,-4.00
2019-03-10T07:33:49.814Z,-3.83
2019-03-10T07:36:39.336Z,-3.88
2019-03-10T07:39:27.894Z,-3.89
2019-03-10T07:42:13.462Z,-3.98
2019-03-10T07:44:58.049Z,-3.96
2019-03-10T07:47:44.196Z,-4.00
2019-03-10T07:50:32.525Z,-3.98
2019-03-10T07:53:12.191Z,-3.84
2019-03-10T07:56:03.440Z,-3.70
2019-03-10T07:58:57.837Z,-3.59
2019-03-10T08:01:58.075Z,-3.57
2019-03-10T08:04:46.420Z,-3.74
2019-03-10T08:07:55.356Z,-3.73
2019-03-10T08:10:34.175Z,-3.71
2019-03-10T08:13:16.861Z,-3.56
2019-03-10T08:16:08.207Z,-3.41
2019-03-10T08:19:08.775Z,-3.25
2019-03-10T08:22:03.870Z,-3.32
2019-03-10T08:24:55.275Z,-3.38
2019-03-10T08:27:37.349Z,-3.38
2019-03-10T08:30:22.034Z,-3.47
2019-03-10T08:33:25.590Z,-3.60
2019-03-10T08:36:08.042Z,-3.50
2019-03-10T08:39:11.464Z,-3.55
2019-03-10T08:42:02.411Z,-3.56
2019-03-10T08:44:58.923Z,-3.32
2019-03-10T08:47:38.097Z,-3.18
2019-03-10T08:50:13.326Z,-3.08
2019-03-10T08:52:59.576Z,-2.73
2019-03-10T08:55:42.670Z,-2.59
2019-03-10T08:58:25.985Z,-2.25
2019-03-10T09:01:28.952Z,-1.59
2019-03-10T09:04:17.319Z,-1.17
2019-03-10T09:07:09.296Z,-0.19
2019-03-10T09:10:03.686Z,0.14
2019-03-10T09:12:42.862Z,1.20
2019-03-10T09:15:28.811Z,1.05
2019-03-10T09:18:11.973Z,0.03
2019-03-10T09:21:03.296Z,-0.86
2019-03-10T09:23:47.148Z,-0.86
2019-03-10T09:26:37.728Z,-1.11
2019-03-10T09:29:12.207Z,-0.28
2019-03-10T09:31:59.275Z,-0.60
2019-03-10T09:34:50.713Z,-0.91
2019-03-10T09:37:31.388Z,-1.42
2019-03-10T09:40:25.559Z,-1.62
2019-03-10T09:43:19.994Z,-1.74
2019-03-10T09:46:06.225Z,-2.10
2019-03-10T09:48:57.684Z,-2.22
2019-03-10T09:51:51.865Z,-2.21
2019-03-10T09:54:33.573Z,-1.99
2019-03-10T09:57:12.307Z,-2.07
2019-03-10T10:00:06.972Z,-2.12
2019-03-10T10:02:58.173Z,-1.94
2019-03-10T10:05:35.283Z,-1.85
2019-03-10T10:08:26.805Z,-1.75
2019-03-10T10:11:15.079Z,-1.90
2019-03-10T10:14:02.323Z,-1.71
2019-03-10T10:16:43.471Z,-1.75
2019-03-10T10:19:34.681Z,-1.93
2019-03-10T10:22:12.640Z,-1.73
2019-03-10T10:25:03.918Z,-1.82
2019-03-10T10:27:55.353Z,-1.81
2019-03-10T10:30:35.896Z,-1.94
2019-03-10T10:33:19.579Z,-1.94
2019-03-10T10:36:16.652Z,-1.98
2019-03-10T10:39:05.051Z,-1.79
2019-03-10T10:41:52.109Z,-1.76
2019-03-10T10:44:39.571Z,-1.76
2019-03-10T10:47:33.535Z,-2.04
2019-03-10T10:50:20.899Z,-2.05
2019-03-10T10:53:07.678Z,-1.94
2019-03-10T10:55:56.806Z,-1.68
2019-03-10T10:58:48.053Z,-1.60
2019-03-10T11:01:34.855Z,-1.74
2019-03-10T11:04:21.878Z,-2.08
2019-03-10T11:07:16.254Z,-2.20
2019-03-10T11:10:03.231Z,-2.06
2019-03-10T11:12:49.876Z,-2.01
2019-03-10T11:15:28.468Z,-2.30
2019-03-10T11:18:16.735Z,-2.31
2019-03-10T11:21:03.628Z,-2.54
2019-03-10T11:23:46.094Z,-2.71
2019-03-10T11:26:22.792Z,-2.69
2019-03-10T11:29:08.176Z,-2.75
2019-03-10T11:31:49.155Z,-2.77
2019-03-10T11:34:30.231Z,-2.77
2019-03-10T11:37:21.498Z,-2.74
2019-03-10T11:40:05.614Z,-2.89
2019-03-10T11:43:12.107Z,-2.82
2019-03-10T11:46:03.245Z,-2.80
2019-03-10T11:48:54.377Z,-2.61
2019-03-10T11:51:41.508Z,-2.77
2019-03-10T11:54:32.651Z,-2.82
2019-03-10T11:57:23.054Z,-2.82
2019-03-10T12:00:03.045Z,-2.82
2019-03-10T12:02:39.535Z,-2.67
2019-03-10T12:05:22.086Z,-2.78
2019-03-10T12:08:19.412Z,-2.93
2019-03-10T12:10:48.794Z,-2.80
2019-03-10T12:13:18.182Z,-2.68
2019-03-10T12:15:47.593Z,-2.70
2019-03-10T12:18:16.990Z,-2.68
2019-03-10T12:20:46.368Z,-2.81
2019-03-10T12:23:15.797Z,-2.79
2019-03-10T12:25:45.113Z,-2.79
2019-03-10T12:28:14.605Z,-2.71
2019-03-10T12:30:44.058Z,-2.70
2019-03-10T12:33:13.396Z,-2.48
2019-03-10T12:35:42.766Z,-2.46
2019-03-10T12:38:13.545Z,-2.46
2019-03-10T12:40:44.350Z,-2.64
2019-03-10T12:43:13.752Z,-2.75
2019-03-10T12:45:43.131Z,-2.92
2019-03-10T12:48:12.614Z,-3.04
2019-03-10T12:50:42.143Z,-3.04
2019-03-10T12:53:11.649Z,-2.89
2019-03-10T12:55:41.015Z,-2.89
2019-03-10T12:58:10.461Z,-2.93
2019-03-10T13:00:40.331Z,-2.82
2019-03-10T13:03:09.730Z,-2.72
2019-03-10T13:05:39.271Z,-2.61
2019-03-10T13:08:08.670Z,-2.56
2019-03-10T13:10:38.049Z,-2.51
2019-03-10T13:13:07.420Z,-2.69
2019-03-10T13:15:36.801Z,-2.84
2019-03-10T13:18:06.218Z,-2.84
2019-03-10T13:20:35.593Z,-2.68
2019-03-10T13:23:05.083Z,-2.68
2019-03-10T13:25:34.901Z,-2.82
2019-03-10T13:28:04.252Z,-3.04
2019-03-10T13:30:33.664Z,-3.04
2019-03-10T13:33:03.069Z,-3.20
2019-03-10T13:35:32.418Z,-3.05
2019-03-10T13:38:01.863Z,-3.14
2019-03-10T13:40:31.272Z,-3.11
2019-03-10T13:43:00.975Z,-2.98
2019-03-10T13:45:30.344Z,-3.19
2019-03-10T13:48:00.573Z,-3.19
2019-03-10T13:50:29.990Z,-3.25
2019-03-10T13:52:59.465Z,-3.25
2019-03-10T13:55:28.925Z,-3.25
2019-03-10T13:57:58.590Z,-3.12
2019-03-10T14:00:28.119Z,-3.03
2019-03-10T14:02:57.470Z,-3.34
2019-03-10T14:05:26.833Z,-3.35
2019-03-10T14:07:56.250Z,-3.37
2019-03-10T14:10:25.656Z,-3.30
2019-03-10T14:12:55.185Z,-3.30
2019-03-10T14:15:24.580Z,-3.33
2019-03-10T14:17:54.397Z,-3.31
2019-03-10T14:20:23.780Z,-3.22
2019-03-10T14:22:53.542Z,-3.28
2019-03-10T14:25:22.927Z,-3.25
2019-03-10T14:27:52.369Z,-3.44
2019-03-10T14:30:22.348Z,-3.44
2019-03-10T14:32:51.816Z,-3.39
2019-03-10T14:35:21.274Z,-3.41
2019-03-10T14:37:50.713Z,-3.41
2019-03-10T14:40:20.097Z,-3.40
2019-03-10T14:42:49.663Z,-3.48
2019-03-10T14:45:19.371Z,-3.45
2019-03-10T14:47:49.036Z,-3.46
2019-03-10T14:50:18.649Z,-3.42
2019-03-10T14:52:48.180Z,-3.49
2019-03-10T14:55:17.759Z,-3.44
2019-03-10T14:57:47.139Z,-3.48
2019-03-10T15:00:19.601Z,-3.44
2019-03-10T15:02:48.990Z,-3.44
2019-03-10T15:05:18.381Z,-3.46
2019-03-10T15:07:47.751Z,-3.48
2019-03-10T15:10:17.587Z,-3.33
2019-03-10T15:12:47.095Z,-3.34
2019-03-10T15:15:22.330Z,-3.34
2019-03-10T15:17:48.167Z,-3.33
2019-03-10T15:20:17.777Z,-3.37
2019-03-10T15:22:47.274Z,-3.37
2019-03-10T15:25:16.652Z,-3.38
2019-03-10T15:27:46.049Z,-3.38
2019-03-10T15:30:17.076Z,-3.38
2019-03-10T15:32:46.874Z,-3.33
2019-03-10T15:35:16.369Z,-3.30
2019-03-10T15:37:45.770Z,-3.44
2019-03-10T15:40:15.352Z,-3.44
2019-03-10T15:42:44.916Z,-3.44
2019-03-10T15:45:15.342Z,-3.52
2019-03-10T15:47:44.735Z,-3.59
2019-03-10T15:50:22.077Z,-3.59
2019-03-10T15:52:51.456Z,-3.58
2019-03-10T15:55:20.786Z,-3.63
2019-03-10T15:57:52.983Z,-3.69
2019-03-10T16:00:22.610Z,-3.70
2019-03-10T16:02:51.923Z,-3.77
2019-03-10T16:05:21.556Z,-3.85
2019-03-10T16:07:52.095Z,-3.86
2019-03-10T16:10:21.577Z,-3.85
2019-03-10T16:12:50.945Z,-3.79
2019-03-10T16:15:20.538Z,-4.40
2019-03-10T16:17:50.033Z,-3.74
2019-03-10T16:20:19.393Z,-3.80
2019-03-10T16:22:48.940Z,-3.85
2019-03-10T16:25:18.529Z,-3.85
2019-03-10T16:27:49.924Z,-3.94
2019-03-10T16:30:19.626Z,-3.93
2019-03-10T16:32:48.988Z,-3.91
2019-03-10T16:35:18.580Z,-3.95
2019-03-10T16:37:48.029Z,-3.96
2019-03-10T16:40:17.733Z,-3.93
2019-03-10T16:42:47.193Z,-3.89
2019-03-10T16:45:18.287Z,-3.89
2019-03-10T16:47:47.738Z,-3.92
2019-03-10T16:50:18.157Z,-3.97
2019-03-10T16:52:47.502Z,-3.92
2019-03-10T16:55:16.912Z,-3.88
2019-03-10T16:57:46.646Z,-3.83
2019-03-10T17:00:17.338Z,-3.86
2019-03-10T17:02:46.823Z,-3.86
2019-03-10T17:05:16.291Z,-3.86
2019-03-10T17:07:45.889Z,-3.85
2019-03-10T17:10:15.649Z,-3.83
2019-03-10T17:12:45.264Z,-3.83
2019-03-10T17:15:15.887Z,-3.83
2019-03-10T17:17:45.322Z,-3.85
2019-03-10T17:20:15.639Z,-3.87
2019-03-10T17:22:45.204Z,-3.93
2019-03-10T17:25:14.891Z,-3.96
2019-03-10T17:27:44.508Z,-3.99
2019-03-10T17:30:18.657Z,-3.99
2019-03-10T17:32:48.211Z,-3.99
2019-03-10T17:35:17.829Z,-4.06
2019-03-10T17:37:48.674Z,-4.07
2019-03-10T17:40:18.657Z,-4.07
2019-03-10T17:42:48.250Z,-4.17
2019-03-10T17:45:18.488Z,-4.17
2019-03-10T17:47:47.966Z,-4.17
2019-03-10T17:50:17.610Z,-4.18
2019-03-10T17:52:47.570Z,-4.20
2019-03-10T17:55:17.211Z,-4.15
2019-03-10T17:57:46.876Z,-4.18
2019-03-10T18:00:18.229Z,-4.14
2019-03-10T18:02:47.736Z,-4.19
2019-03-10T18:05:17.123Z,-4.20
2019-03-10T18:07:46.522Z,-4.26
2019-03-10T18:10:15.922Z,-4.19
2019-03-10T18:12:45.764Z,-4.19
2019-03-10T18:15:15.943Z,-4.18
2019-03-10T18:17:45.307Z,-4.21
2019-03-10T18:20:15.218Z,-4.24
2019-03-10T18:22:44.644Z,-4.22
2019-03-10T18:25:14.156Z,-4.23
2019-03-10T18:27:43.549Z,-4.23
2019-03-10T18:30:15.580Z,-4.29
2019-03-10T18:32:45.031Z,-4.25
2019-03-10T18:35:14.580Z,-4.25
2019-03-10T18:37:43.967Z,-4.23
2019-03-10T18:40:15.827Z,-4.20
2019-03-10T18:42:45.226Z,-4.20
2019-03-10T18:45:16.612Z,-4.19
2019-03-10T18:47:46.052Z,-4.21
2019-03-10T18:50:16.436Z,-4.25
2019-03-10T18:52:45.933Z,-4.23
2019-03-10T18:55:16.114Z,-4.26
2019-03-10T18:57:45.925Z,-4.27
2019-03-10T19:00:18.077Z,-4.36
2019-03-10T19:02:47.723Z,-4.36
2019-03-10T19:05:17.326Z,-4.42
2019-03-10T19:07:46.739Z,-4.37
2019-03-10T19:10:16.174Z,-4.36
2019-03-10T19:12:45.627Z,-4.38
2019-03-10T19:15:16.343Z,-4.43
2019-03-10T19:17:45.811Z,-4.43
2019-03-10T19:20:15.258Z,-4.46
2019-03-10T19:22:44.669Z,-4.46
2019-03-10T19:25:14.384Z,-4.49
2019-03-10T19:27:43.905Z,-4.54
2019-03-10T19:30:15.396Z,-4.59
2019-03-10T19:32:44.850Z,-4.56
2019-03-10T19:35:14.598Z,-4.57
2019-03-10T19:37:44.293Z,-4.62
2019-03-10T19:40:14.490Z,-4.65
2019-03-10T19:42:43.899Z,-4.68
2019-03-10T19:45:14.433Z,-4.74
2019-03-10T19:47:43.964Z,-4.77
2019-03-10T19:50:14.226Z,-4.78
2019-03-10T19:52:43.663Z,-4.78
2019-03-10T19:55:13.403Z,-4.80
2019-03-10T19:57:42.817Z,-4.76
2019-03-10T20:00:14.093Z,-4.78
2019-03-10T20:02:43.894Z,-4.80
2019-03-10T20:05:13.326Z,-4.83
2019-03-10T20:07:43.136Z,-4.91
2019-03-10T20:10:13.632Z,-4.95
2019-03-10T20:12:43.218Z,-4.96
2019-03-10T20:15:14.610Z,-4.95
2019-03-10T20:17:44.098Z,-4.94
2019-03-10T20:20:14.876Z,-5.00
2019-03-10T20:22:44.579Z,-5.05
2019-03-10T20:25:14.824Z,-5.04
2019-03-10T20:27:44.647Z,-5.04
2019-03-10T20:30:16.636Z,-5.02
2019-03-10T20:32:46.083Z,-5.02
2019-03-10T20:35:15.575Z,-5.02
2019-03-10T20:37:45.541Z,-5.07
2019-03-10T20:40:16.279Z,-5.07
2019-03-10T20:42:45.741Z,-5.15
2019-03-10T20:45:15.376Z,-5.13
2019-03-10T20:47:45.021Z,-5.20
2019-03-10T20:50:15.356Z,-5.16
2019-03-10T20:52:45.295Z,-5.19
2019-03-10T20:55:14.932Z,-5.24
2019-03-10T20:57:44.674Z,-5.22
2019-03-10T21:00:16.472Z,-5.29
2019-03-10T21:02:45.851Z,-5.22
2019-03-10T21:05:15.847Z,-5.33
2019-03-10T21:07:45.711Z,-5.33
2019-03-10T21:10:15.813Z,-5.31
2019-03-10T21:12:45.644Z,-5.27
2019-03-10T21:15:16.381Z,-5.29
2019-03-10T21:17:46.099Z,-5.33
2019-03-10T21:20:16.678Z,-5.33
2019-03-10T21:22:46.067Z,-5.38
2019-03-10T21:25:19.773Z,-5.37
2019-03-10T21:27:49.237Z,-5.47
2019-03-10T21:30:20.554Z,-5.47
2019-03-10T21:32:50.453Z,-5.46
2019-03-10T21:35:19.958Z,-5.48
2019-03-10T21:37:49.350Z,-5.54
2019-03-10T21:40:20.423Z,-5.53
2019-03-10T21:42:49.779Z,-5.56
2019-03-10T21:45:19.135Z,-5.56
2019-03-10T21:47:48.506Z,-5.61
2019-03-10T21:50:18.076Z,-5.59
2019-03-10T21:52:47.647Z,-5.57
2019-03-10T21:55:17.230Z,-5.57
2019-03-10T21:57:47.391Z,-5.65
2019-03-10T22:00:17.046Z,-5.65
2019-03-10T22:02:46.430Z,-5.64
2019-03-10T22:05:15.793Z,-5.64
2019-03-10T22:07:45.199Z,-5.60
2019-03-10T22:10:25.841Z,-5.60
2019-03-10T22:12:46.073Z,-5.67
2019-03-10T22:15:15.755Z,-5.67
2019-03-10T22:17:45.234Z,-5.68
2019-03-10T22:20:14.825Z,-5.67
2019-03-10T22:22:49.131Z,-6.40
2019-03-10T22:25:15.546Z,-5.72
2019-03-10T22:27:46.090Z,-5.72
2019-03-10T22:30:16.605Z,-5.70
2019-03-10T22:32:46.097Z,-5.69
2019-03-10T22:35:15.578Z,-5.72
2019-03-10T22:37:44.949Z,-5.72
2019-03-10T22:40:14.734Z,-5.73
2019-03-10T22:42:44.109Z,-6.44
2019-03-10T22:45:14.414Z,-6.44
2019-03-10T22:47:43.954Z,-5.78
2019-03-10T22:50:13.864Z,-5.78
2019-03-10T22:52:43.249Z,-5.83
2019-03-10T22:55:12.978Z,-5.85
2019-03-10T22:57:42.426Z,-5.85
2019-03-10T23:00:16.936Z,-5.86
2019-03-10T23:02:46.306Z,-5.90
2019-03-10T23:05:15.716Z,-5.88
2019-03-10T23:07:45.258Z,-5.88
2019-03-10T23:10:14.838Z,-5.86
2019-03-10T23:12:44.637Z,-5.97
2019-03-10T23:15:14.430Z,-5.99
2019-03-10T23:17:45.898Z,-5.99
2019-03-10T23:20:15.316Z,-5.98
2019-03-10T23:22:44.977Z,-6.01
2019-03-10T23:25:14.473Z,-6.07
2019-03-10T23:27:44.077Z,-6.04
2019-03-10T23:30:14.546Z,-6.06
2019-03-10T23:32:43.963Z,-6.12
2019-03-10T23:35:13.648Z,-6.14
2019-03-10T23:37:43.207Z,-6.14
2019-03-10T23:40:12.756Z,-6.14
2019-03-10T23:42:42.236Z,-6.11
2019-03-10T23:45:11.855Z,-6.11
2019-03-10T23:47:42.543Z,-6.21
2019-03-10T23:50:12.418Z,-6.21
2019-03-10T23:52:41.978Z,-6.26
2019-03-10T23:55:11.667Z,-6.25
2019-03-10T23:57:41.209Z,-6.30
